^^
Meteo Knjazevac Station Historical Data
Daily Summary for June 19, 2022 Units:  English    Metric   Both
Daily Weekly Monthly Yearly Custom
  High: Low: Average:
Temperature: 85.3 °F 54 °F 69.9 °F
Dew Point: 64.9 °F 53 °F 58.8 °F
Humidity: 99% 44% 72%
Wind Speed: 6mph 0mph 1.6mph
Wind Gust: 14mph - -
Wind- - South
Pressure: 30.19 in 30.06 in -
Precipitation: 0.00 in    
Historical Graphs
 
 
Tabular Data for June 19, 2022
Time Temperature Dew Point Pressure Wind Wind Speed Wind Gust Humidity Rainfall Rate (Hourly) solar Conditions
00:00 60.3 °F 57.6 °F 30.16 in Calm   2 mph 91% 0.00 in 0 W/m2
00:10 59.7 °F 57.1 °F 30.16 in WSW 1 mph 3 mph 91% 0.00 in 0 W/m2
00:20 59.4 °F 57.3 °F 30.16 in SW 1 mph 3 mph 93% 0.00 in 0 W/m2
00:30 59.2 °F 57.2 °F 30.16 in WNW 2 mph 3 mph 93% 0.00 in 0 W/m2
00:40 59 °F 57.3 °F 30.16 in NW 1 mph 4 mph 94% 0.00 in 0 W/m2
00:50 58.8 °F 57.1 °F 30.16 in WNW 2 mph 3 mph 94% 0.00 in 0 W/m2
01:00 58.8 °F 57.1 °F 30.16 in Calm   3 mph 94% 0.00 in 0 W/m2
01:10 58.5 °F 56.7 °F 30.16 in Calm   2 mph 94% 0.00 in 0 W/m2
01:20 58.3 °F 56.6 °F 30.16 in Calm   2 mph 94% 0.00 in 0 W/m2
01:30 57.9 °F 56.2 °F 30.16 in West 1 mph 2 mph 94% 0.00 in 0 W/m2
01:40 57.4 °F 55.7 °F 30.17 in WNW 1 mph 3 mph 94% 0.00 in 0 W/m2
01:50 57.4 °F 55.7 °F 30.17 in Calm   2 mph 94% 0.00 in 0 W/m2
02:00 57.2 °F 55.8 °F 30.17 in West 1 mph 2 mph 95% 0.00 in 0 W/m2
02:10 56.8 °F 55.4 °F 30.17 in SW 1 mph 3 mph 95% 0.00 in 0 W/m2
02:20 56.5 °F 55.1 °F 30.17 in West 2 mph 3 mph 95% 0.00 in 0 W/m2
02:30 56.3 °F 55.2 °F 30.17 in West 3 mph 5 mph 96% 0.00 in 0 W/m2
02:40 56.5 °F 55.4 °F 30.17 in WNW 2 mph 5 mph 96% 0.00 in 0 W/m2
02:50 56.5 °F 55.4 °F 30.17 in NW 1 mph 2 mph 96% 0.00 in 0 W/m2
03:00 56.3 °F 55.2 °F 30.17 in West 2 mph 3 mph 96% 0.00 in 0 W/m2
03:10 56.1 °F 55 °F 30.17 in WNW 1 mph 3 mph 96% 0.00 in 0 W/m2
03:20 55.9 °F 54.8 °F 30.17 in WSW 1 mph 2 mph 96% 0.00 in 0 W/m2
03:30 55.8 °F 54.6 °F 30.17 in Calm   2 mph 96% 0.00 in 0 W/m2
03:40 55.8 °F 54.6 °F 30.17 in Calm   2 mph 96% 0.00 in 0 W/m2
03:50 55.8 °F 54.6 °F 30.17 in Calm   2 mph 96% 0.00 in 0 W/m2
04:00 55.8 °F 54.6 °F 30.17 in WSW 1 mph 2 mph 96% 0.00 in 0 W/m2
04:10 55.4 °F 54.3 °F 30.17 in NNW 1 mph 2 mph 96% 0.00 in 0 W/m2
04:20 55.2 °F 54.1 °F 30.17 in Calm   1 mph 96% 0.00 in 0 W/m2
04:30 55 °F 53.9 °F 30.17 in West 1 mph 2 mph 96% 0.00 in 0 W/m2
04:40 54.7 °F 53.6 °F 30.17 in West 1 mph 3 mph 96% 0.00 in 0 W/m2
04:50 54.5 °F 53.4 °F 30.17 in Calm   2 mph 96% 0.00 in 3 W/m2
05:00 54.3 °F 53.2 °F 30.17 in Calm   2 mph 96% 0.00 in 8 W/m2
05:10 54.1 °F 53 °F 30.18 in West 1 mph 2 mph 96% 0.00 in 14 W/m2
05:20 54 °F 53.4 °F 30.18 in NW 1 mph 2 mph 98% 0.00 in 23 W/m2
05:30 54 °F 53.4 °F 30.18 in Calm   2 mph 98% 0.01 in 30 W/m2
05:40 54 °F 53.4 °F 30.18 in Calm   2 mph 98% 0.00 in 37 W/m2
05:50 54.1 °F 53.9 °F 30.18 in Calm   2 mph 99% 0.00 in 68 W/m2
06:00 54.5 °F 54.2 °F 30.18 in WNW 1 mph 2 mph 99% 0.00 in 84 W/m2
06:10 54.5 °F 54.2 °F 30.18 in Calm   2 mph 99% 0.00 in 109 W/m2
06:20 54.7 °F 54.4 °F 30.19 in Calm   2 mph 99% 0.00 in 134 W/m2
06:30 54.9 °F 54.6 °F 30.19 in Calm   2 mph 99% 0.00 in 160 W/m2
06:40 55.2 °F 54.9 °F 30.19 in Calm   2 mph 99% 0.00 in 189 W/m2
06:50 55.6 °F 55.3 °F 30.19 in Calm   2 mph 99% 0.00 in 219 W/m2
07:00 55.9 °F 55.7 °F 30.19 in NNW 1 mph 4 mph 99% 0.00 in 247 W/m2
07:10 56.5 °F 56.2 °F 30.19 in WNW 1 mph 2 mph 99% 0.00 in 277 W/m2
07:20 57.2 °F 56.9 °F 30.19 in NNW 1 mph 2 mph 99% 0.00 in 310 W/m2
07:30 57.9 °F 57.4 °F 30.19 in NW 1 mph 2 mph 98% 0.00 in 337 W/m2
07:40 58.5 °F 57.3 °F 30.19 in Calm   2 mph 96% 0.00 in 373 W/m2
07:50 59.2 °F 58 °F 30.19 in Calm   5 mph 96% 0.00 in 405 W/m2
08:00 60.3 °F 58.8 °F 30.19 in East 2 mph 6 mph 95% 0.00 in 442 W/m2
08:10 61 °F 58.3 °F 30.19 in Calm   5 mph 91% 0.00 in 473 W/m2
08:20 62.6 °F 59.6 °F 30.19 in NE 1 mph 7 mph 90% 0.00 in 516 W/m2
08:30 64.4 °F 60.1 °F 30.19 in ENE 3 mph 6 mph 86% 0.00 in 553 W/m2
08:40 65.7 °F 60.7 °F 30.19 in NNE 2 mph 5 mph 84% 0.00 in 583 W/m2
08:50 67.3 °F 61.2 °F 30.19 in NE 1 mph 7 mph 81% 0.00 in 617 W/m2
09:00 68.2 °F 61.1 °F 30.19 in NE 2 mph 6 mph 78% 0.00 in 647 W/m2
09:10 69.1 °F 61.9 °F 30.18 in ENE 2 mph 6 mph 78% 0.00 in 676 W/m2
09:20 70.2 °F 62.6 °F 30.18 in ENE 2 mph 6 mph 77% 0.00 in 707 W/m2
09:30 71.2 °F 62.9 °F 30.18 in NE 1 mph 6 mph 75% 0.00 in 732 W/m2
09:40 72 °F 62.8 °F 30.17 in East 3 mph 6 mph 73% 0.00 in 760 W/m2
09:50 73.2 °F 62.8 °F 30.17 in NE 1 mph 6 mph 70% 0.00 in 787 W/m2
10:00 74.1 °F 63.3 °F 30.17 in NE 5 mph 7 mph 69% 0.00 in 813 W/m2
10:10 75.2 °F 64.3 °F 30.17 in Calm   7 mph 69% 0.00 in 837 W/m2
10:20 75.9 °F 64.6 °F 30.17 in West 1 mph 5 mph 68% 0.00 in 853 W/m2
11:00 77.8 °F 64.3 °F 30.16 in SSW 1.6 mph 5 mph 63.4% 0.00 in 919 W/m2
11:10 78.6 °F 64.5 °F 30.15 in SSE 2 mph 5 mph 62% 0.00 in 931 W/m2
11:20 79.3 °F 64.3 °F 30.15 in ESE 2 mph 6 mph 60% 0.00 in 900 W/m2
11:30 80.1 °F 64 °F 30.15 in NNE 2 mph 7 mph 58% 0.00 in 952 W/m2
11:40 80.2 °F 63.6 °F 30.14 in East 2 mph 5 mph 57% 0.00 in 960 W/m2
11:50 80.6 °F 62.9 °F 30.14 in ENE 2 mph 7 mph 55% 0.00 in 943 W/m2
12:00 81 °F 62.7 °F 30.14 in NE 3 mph 6 mph 54% 0.00 in 443 W/m2
12:10 81.5 °F 62.2 °F 30.14 in NNE 1 mph 8 mph 52% 0.00 in 304 W/m2
12:20 82.2 °F 62.8 °F 30.13 in NNE 2 mph 8 mph 52% 0.00 in 581 W/m2
12:30 82.8 °F 63.3 °F 30.13 in North 3 mph 9 mph 52% 0.00 in 801 W/m2
12:40 83.3 °F 64.4 °F 30.13 in NNE 5 mph 9 mph 53% 0.00 in 368 W/m2
12:50 83.8 °F 64.9 °F 30.13 in NNE 5 mph 10 mph 53% 0.00 in 811 W/m2
13:00 84.2 °F 63 °F 30.12 in NNE 1 mph 9 mph 49% 0.00 in 972 W/m2
13:10 84.4 °F 63.1 °F 30.12 in NNE 5 mph 8 mph 49% 0.00 in 670 W/m2
13:20 84.2 °F 63 °F 30.12 in North 5 mph 12 mph 49% 0.00 in 325 W/m2
13:30 83.5 °F 62.3 °F 30.12 in NNE 1 mph 12 mph 49% 0.00 in 191 W/m2
13:40 83.1 °F 62 °F 30.11 in NNW 2 mph 8 mph 49% 0.00 in 942 W/m2
13:50 83.9 °F 62.6 °F 30.11 in North 3 mph 8 mph 49% 0.00 in 931 W/m2
14:00 84.7 °F 62.3 °F 30.11 in North 5 mph 10 mph 47% 0.00 in 919 W/m2
14:10 84.5 °F 62.1 °F 30.11 in NE 2 mph 10 mph 47% 0.00 in 314 W/m2
14:20 83.8 °F 61.5 °F 30.10 in NNE 1 mph 11 mph 47% 0.00 in 890 W/m2
14:30 84.6 °F 60.9 °F 30.10 in North 6 mph 12 mph 45% 0.00 in 873 W/m2
14:40 84.7 °F 60.4 °F 30.10 in NE 5 mph 8 mph 44% 0.00 in 774 W/m2
14:50 84.4 °F 60.7 °F 30.10 in North 2 mph 10 mph 45% 0.00 in 212 W/m2
15:00 84 °F 62.2 °F 30.09 in NNW 1 mph 10 mph 48% 0.00 in 817 W/m2
15:10 84.6 °F 60.9 °F 30.09 in NE 5 mph 12 mph 45% 0.00 in 182 W/m2
15:20 83.5 °F 59.9 °F 30.09 in North 1 mph 12 mph 45% 0.00 in 158 W/m2
15:30 83.5 °F 59.9 °F 30.08 in NE 3 mph 8 mph 45% 0.00 in 502 W/m2
15:40 83.7 °F 59.4 °F 30.08 in NE 1 mph 10 mph 44% 0.00 in 217 W/m2
15:50 83.7 °F 59.4 °F 30.08 in NW 1 mph 6 mph 44% 0.00 in 700 W/m2
16:00 84.4 °F 60.7 °F 30.08 in NNE 1 mph 10 mph 45% 0.00 in 674 W/m2
16:10 84.5 °F 60.2 °F 30.07 in NE 5 mph 14 mph 44% 0.00 in 165 W/m2
16:20 83.5 °F 59.9 °F 30.07 in NNE 3 mph 8 mph 45% 0.00 in 154 W/m2
16:30 82.5 °F 59.1 °F 30.07 in North 3 mph 9 mph 45% 0.00 in 168 W/m2
16:40 82.6 °F 59.1 °F 30.07 in North 3 mph 8 mph 45% 0.00 in 562 W/m2
16:50 83.7 °F 61.3 °F 30.06 in NNE 1 mph 9 mph 47% 0.00 in 532 W/m2
17:00 84.4 °F 60.7 °F 30.06 in North 3 mph 8 mph 45% 0.00 in 488 W/m2
17:10 84.7 °F 61 °F 30.06 in North 1 mph 7 mph 45% 0.00 in 457 W/m2
17:20 84.9 °F 61.2 °F 30.06 in North 2 mph 14 mph 45% 0.00 in 426 W/m2
17:30 84.9 °F 60.6 °F 30.06 in North 2 mph 9 mph 44% 0.00 in 391 W/m2
17:40 85.1 °F 61.4 °F 30.06 in NNW 2 mph 6 mph 45% 0.00 in 358 W/m2
17:50 85.3 °F 60.9 °F 30.06 in NNE 2 mph 7 mph 44% 0.00 in 327 W/m2
18:00 85.1 °F 61.4 °F 30.06 in NNE 3 mph 6 mph 45% 0.00 in 295 W/m2
18:10 85.1 °F 61.4 °F 30.06 in NNE 1 mph 7 mph 45% 0.00 in 264 W/m2
18:20 85.1 °F 61.3 °F 30.06 in West 2 mph 6 mph 45% 0.00 in 231 W/m2
18:30 84.6 °F 62.1 °F 30.06 in NNW 1 mph 8 mph 47% 0.00 in 201 W/m2
18:40 84.4 °F 61.9 °F 30.06 in NW 1 mph 4 mph 47% 0.00 in 173 W/m2
18:50 83.8 °F 61.5 °F 30.06 in North 1 mph 7 mph 47% 0.00 in 145 W/m2
19:00 83.5 °F 61.1 °F 30.06 in NNW 2 mph 6 mph 47% 0.00 in 120 W/m2
19:10 82.8 °F 60.5 °F 30.06 in NW 1 mph 5 mph 47% 0.00 in 95 W/m2
19:20 82.2 °F 60.6 °F 30.06 in NE 3 mph 6 mph 48% 0.00 in 73 W/m2
19:30 81.7 °F 60.1 °F 30.06 in NNE 1 mph 6 mph 48% 0.00 in 54 W/m2
19:40 80.9 °F 60 °F 30.06 in NNE 1 mph 7 mph 49% 0.00 in 38 W/m2
19:50 79.8 °F 60.6 °F 30.06 in Calm   3 mph 52% 0.00 in 25 W/m2
20:00 78.4 °F 59.9 °F 30.06 in North 1 mph 2 mph 53% 0.00 in 14 W/m2
20:10 77.1 °F 59.2 °F 30.06 in North 1 mph 5 mph 54% 0.00 in 7 W/m2
20:20 75.9 °F 59.6 °F 30.06 in South 1 mph 3 mph 57% 0.00 in 0 W/m2
20:30 74.8 °F 59 °F 30.06 in SSW 1 mph 3 mph 58% 0.00 in 0 W/m2
20:40 73.6 °F 58.4 °F 30.06 in SW 2 mph 4 mph 59% 0.00 in 0 W/m2
20:50 72.6 °F 58.9 °F 30.07 in WSW 2 mph 4 mph 62% 0.00 in 0 W/m2
21:00 71.4 °F 58.6 °F 30.07 in WSW 3 mph 6 mph 64% 0.00 in 0 W/m2
21:10 70 °F 58.9 °F 30.07 in West 3 mph 7 mph 68% 0.00 in 0 W/m2
21:20 68.9 °F 58.3 °F 30.08 in West 3 mph 6 mph 69% 0.00 in 0 W/m2
21:30 68.2 °F 58 °F 30.08 in West 2 mph 5 mph 70% 0.00 in 0 W/m2
21:40 67.5 °F 58.1 °F 30.08 in SW 2 mph 3 mph 72% 0.00 in 0 W/m2
21:50 66.7 °F 57.8 °F 30.08 in SW 2 mph 3 mph 73% 0.00 in 0 W/m2
22:00 66.2 °F 57.6 °F 30.08 in West 1 mph 3 mph 74% 0.00 in 0 W/m2
22:10 65.6 °F 57.1 °F 30.08 in WSW 1 mph 3 mph 74% 0.00 in 0 W/m2
22:20 64.9 °F 56.8 °F 30.08 in Calm   3 mph 75% 0.00 in 0 W/m2
22:30 64.4 °F 57 °F 30.08 in SW 1 mph 2 mph 77% 0.00 in 0 W/m2
22:40 63.7 °F 56.7 °F 30.08 in WSW 2 mph 4 mph 78% 0.00 in 0 W/m2
22:50 63.1 °F 56.5 °F 30.08 in NW 1 mph 3 mph 79% 0.00 in 0 W/m2
23:00 62.6 °F 56.3 °F 30.08 in Calm   2 mph 80% 0.00 in 0 W/m2
23:10 62.2 °F 56 °F 30.08 in WSW 1 mph 2 mph 80% 0.00 in 0 W/m2
23:20 61.7 °F 55.8 °F 30.08 in NNW 1 mph 2 mph 81% 0.00 in 0 W/m2
23:30 61 °F 55.8 °F 30.08 in West 2 mph 4 mph 83% 0.00 in 0 W/m2
23:40 60.3 °F 55.1 °F 30.08 in West 2 mph 6 mph 83% 0.00 in 0 W/m2
23:50 59.5 °F 54.7 °F 30.08 in West 3 mph 7 mph 84% 0.00 in 0 W/m2
Knjazevac, Serbia
Compliments of Weather Underground - 2 mb